createdAt,value
2019-01-14T00:00:02.777Z,4.34
2019-01-14T00:02:33.323Z,4.36
2019-01-14T00:05:05.477Z,4.32
2019-01-14T00:07:36.013Z,4.27
2019-01-14T00:10:07.242Z,4.28
2019-01-14T00:12:37.855Z,4.24
2019-01-14T00:15:08.567Z,4.21
2019-01-14T00:17:39.165Z,4.29
2019-01-14T00:20:10.228Z,4.19
2019-01-14T00:22:40.721Z,4.19
2019-01-14T00:25:11.365Z,4.16
2019-01-14T00:27:41.968Z,4.17
2019-01-14T00:30:16.588Z,4.05
2019-01-14T00:32:47.180Z,4.03
2019-01-14T00:35:17.660Z,4.05
2019-01-14T00:37:48.181Z,4.08
2019-01-14T00:40:19.407Z,4.06
2019-01-14T00:42:49.984Z,4.09
2019-01-14T00:45:20.500Z,4.05
2019-01-14T00:47:51.086Z,4.01
2019-01-14T00:50:21.590Z,4.01
2019-01-14T00:52:52.124Z,4.03
2019-01-14T00:55:22.706Z,3.98
2019-01-14T00:57:53.231Z,4.05
2019-01-14T01:00:25.491Z,4.01
2019-01-14T01:02:56.187Z,3.98
2019-01-14T01:05:26.739Z,4.01
2019-01-14T01:07:57.308Z,4.02
2019-01-14T01:10:27.874Z,3.95
2019-01-14T01:12:59.904Z,4.02
2019-01-14T01:15:30.407Z,3.95
2019-01-14T01:18:01.160Z,3.95
2019-01-14T01:20:32.659Z,3.91
2019-01-14T01:23:03.164Z,3.90
2019-01-14T01:25:33.752Z,3.89
2019-01-14T01:28:04.290Z,3.95
2019-01-14T01:30:34.824Z,3.96
2019-01-14T01:33:05.371Z,3.89
2019-01-14T01:35:35.925Z,3.87
2019-01-14T01:38:06.504Z,3.88
2019-01-14T01:40:37.050Z,3.82
2019-01-14T01:43:07.596Z,3.79
2019-01-14T01:45:38.218Z,3.85
2019-01-14T01:48:08.775Z,3.75
2019-01-14T01:50:39.309Z,3.73
2019-01-14T01:53:09.813Z,3.78
2019-01-14T01:55:40.350Z,3.81
2019-01-14T01:58:10.859Z,3.81
2019-01-14T02:00:41.452Z,3.79
2019-01-14T02:03:12.001Z,3.76
2019-01-14T02:05:42.530Z,3.83
2019-01-14T02:08:14.842Z,3.76
2019-01-14T02:10:45.435Z,3.70
2019-01-14T02:13:16.000Z,3.72
2019-01-14T02:15:46.533Z,3.69
2019-01-14T02:18:17.107Z,3.67
2019-01-14T02:20:47.541Z,3.70
2019-01-14T02:23:18.020Z,3.68
2019-01-14T02:25:48.620Z,3.67
2019-01-14T02:28:19.093Z,3.61
2019-01-14T02:30:49.641Z,3.60
2019-01-14T02:33:20.210Z,3.67
2019-01-14T02:35:50.719Z,3.61
2019-01-14T02:38:21.197Z,3.64
2019-01-14T02:40:51.755Z,3.64
2019-01-14T02:43:22.273Z,3.67
2019-01-14T02:45:52.798Z,3.64
2019-01-14T02:48:23.366Z,3.67
2019-01-14T02:50:53.863Z,3.71
2019-01-14T02:53:24.380Z,3.77
2019-01-14T02:55:54.925Z,3.81
2019-01-14T02:58:25.425Z,3.87
2019-01-14T03:00:55.922Z,3.94
2019-01-14T03:03:26.508Z,3.96
2019-01-14T03:05:57.201Z,3.94
2019-01-14T03:08:27.661Z,3.94
2019-01-14T03:10:58.245Z,3.94
2019-01-14T03:13:28.753Z,3.95
2019-01-14T03:15:59.248Z,4.05
2019-01-14T03:18:29.840Z,4.06
2019-01-14T03:21:00.373Z,4.07
2019-01-14T03:23:30.892Z,4.08
2019-01-14T03:26:01.534Z,4.10
2019-01-14T05:03:44.733Z,2.25
2019-01-14T05:06:15.276Z,2.27
2019-01-14T05:08:45.785Z,2.25
2019-01-14T05:11:16.299Z,2.32
2019-01-14T05:13:46.774Z,2.41
2019-01-14T05:16:17.258Z,2.45
2019-01-14T05:18:47.807Z,2.51
2019-01-14T05:21:18.255Z,2.61
2019-01-14T05:23:48.714Z,2.70
2019-01-14T05:26:19.222Z,2.67
2019-01-14T05:28:49.738Z,2.73
2019-01-14T05:31:20.388Z,2.79
2019-01-14T05:33:50.991Z,2.69
2019-01-14T05:36:21.511Z,2.65
2019-01-14T05:38:51.958Z,2.68
2019-01-14T05:41:22.458Z,2.66
2019-01-14T05:43:53.089Z,2.64
2019-01-14T05:46:23.537Z,2.61
2019-01-14T05:48:54.065Z,2.63
2019-01-14T05:51:24.540Z,2.56
2019-01-14T05:53:55.001Z,2.54
2019-01-14T05:56:25.523Z,2.55
2019-01-14T05:58:56.033Z,2.62
2019-01-14T06:01:26.504Z,2.59
2019-01-14T06:03:57.047Z,2.58
2019-01-14T06:06:27.509Z,2.60
2019-01-14T06:08:58.014Z,2.53
2019-01-14T06:11:28.559Z,2.52
2019-01-14T06:13:59.046Z,2.56
2019-01-14T06:16:29.646Z,2.54
2019-01-14T06:19:00.238Z,2.59
2019-01-14T06:21:30.737Z,2.56
2019-01-14T06:24:01.230Z,2.62
2019-01-14T06:26:31.753Z,2.58
2019-01-14T06:29:02.224Z,2.58
2019-01-14T06:31:32.719Z,2.52
2019-01-14T06:34:03.235Z,2.57
2019-01-14T06:36:33.725Z,2.55
2019-01-14T06:39:05.581Z,2.48
2019-01-14T06:41:37.242Z,2.52
2019-01-14T06:44:07.732Z,2.55
2019-01-14T06:46:38.195Z,2.54
2019-01-14T06:49:08.739Z,2.57
2019-01-14T06:52:06.010Z,2.56
2019-01-14T06:54:36.530Z,2.62
2019-01-14T06:57:06.997Z,2.59
2019-01-14T06:59:37.494Z,2.55
2019-01-14T07:02:07.994Z,2.59
2019-01-14T07:04:38.475Z,2.61
2019-01-14T07:07:09.000Z,2.60
2019-01-14T07:09:39.579Z,2.58
2019-01-14T07:12:10.063Z,2.41
2019-01-14T07:14:40.534Z,2.02
2019-01-14T07:17:11.061Z,1.43
2019-01-14T07:19:41.550Z,1.03
2019-01-14T07:22:12.086Z,0.90
2019-01-14T07:24:42.619Z,0.89
2019-01-14T07:27:13.086Z,0.98
2019-01-14T07:29:43.582Z,0.99
2019-01-14T07:32:14.103Z,1.11
2019-01-14T07:34:44.593Z,1.18
2019-01-14T07:37:15.079Z,1.30
2019-01-14T07:39:45.670Z,1.36
2019-01-14T07:42:16.187Z,1.38
2019-01-14T07:44:46.709Z,1.38
2019-01-14T07:47:17.297Z,1.38
2019-01-14T07:49:47.832Z,1.38
2019-01-14T07:52:18.340Z,1.40
2019-01-14T07:54:48.901Z,1.49
2019-01-14T07:57:19.465Z,1.46
2019-01-14T07:59:49.990Z,1.43
2019-01-14T08:02:20.589Z,1.44
2019-01-14T08:04:51.149Z,1.43
2019-01-14T08:07:21.651Z,1.41
2019-01-14T08:09:52.236Z,1.41
2019-01-14T08:12:22.795Z,1.43
2019-01-14T08:14:53.336Z,1.37
2019-01-14T08:17:23.895Z,1.34
2019-01-14T08:19:54.625Z,1.36
2019-01-14T08:22:25.365Z,1.32
2019-01-14T08:24:56.053Z,1.32
2019-01-14T08:27:26.601Z,1.33
2019-01-14T08:29:57.176Z,1.23
2019-01-14T08:32:27.724Z,1.28
2019-01-14T08:34:58.166Z,1.33
2019-01-14T08:37:28.707Z,1.30
2019-01-14T08:39:59.200Z,1.28
2019-01-14T08:42:29.705Z,1.32
2019-01-14T08:45:00.218Z,1.26
2019-01-14T08:47:30.710Z,1.29
2019-01-14T08:50:01.885Z,1.35
2019-01-14T08:52:34.604Z,1.38
2019-01-14T08:55:05.344Z,1.41
2019-01-14T08:57:35.932Z,1.41
2019-01-14T09:00:16.689Z,1.39
2019-01-14T09:02:47.199Z,1.37
2019-01-14T09:05:17.932Z,1.41
2019-01-14T09:07:48.545Z,1.39
2019-01-14T09:10:23.112Z,1.48
2019-01-14T09:12:53.648Z,1.58
2019-01-14T09:15:24.251Z,1.61
2019-01-14T09:18:02.438Z,1.69
2019-01-14T09:20:27.060Z,1.79
2019-01-14T09:22:57.575Z,1.79
2019-01-14T09:25:28.106Z,1.79
2019-01-14T09:27:58.618Z,1.82
2019-01-14T09:33:11.939Z,1.97
2019-01-14T09:35:42.538Z,2.01
2019-01-14T09:38:13.422Z,2.02
2019-01-14T09:40:44.260Z,1.92
2019-01-14T09:43:14.989Z,1.88
2019-01-14T09:45:45.811Z,1.89
2019-01-14T09:48:18.168Z,1.88
2019-01-14T09:50:50.482Z,1.70
2019-01-14T09:53:21.233Z,1.55
2019-01-14T09:55:52.102Z,1.41
2019-01-14T09:58:22.878Z,1.41
2019-01-14T10:00:53.645Z,1.41
2019-01-14T10:03:24.732Z,1.52
2019-01-14T10:05:55.810Z,1.60
2019-01-14T10:08:26.722Z,1.64
2019-01-14T10:10:57.635Z,1.69
2019-01-14T10:13:49.291Z,1.72
2019-01-14T10:16:21.589Z,1.71
2019-01-14T10:18:52.732Z,1.64
2019-01-14T10:21:23.410Z,1.65
2019-01-14T10:23:54.189Z,1.67
2019-01-14T10:26:24.815Z,1.68
2019-01-14T10:28:58.227Z,1.72
2019-01-14T10:31:29.126Z,1.73
2019-01-14T10:34:00.275Z,1.80
2019-01-14T10:36:34.047Z,1.84
2019-01-14T10:39:09.133Z,1.90
2019-01-14T10:41:40.141Z,2.00
2019-01-14T10:44:12.982Z,2.07
2019-01-14T10:46:44.179Z,2.20
2019-01-14T10:49:23.226Z,2.36
2019-01-14T10:51:54.225Z,2.45
2019-01-14T10:54:28.159Z,2.50
2019-01-14T10:57:00.248Z,2.45
2019-01-14T10:59:34.975Z,2.38
2019-01-14T11:02:05.962Z,2.40
2019-01-14T11:04:39.775Z,2.54
2019-01-14T11:07:11.100Z,2.42
2019-01-14T11:09:44.612Z,2.24
2019-01-14T11:12:34.913Z,2.24
2019-01-14T11:15:25.472Z,2.09
2019-01-14T11:17:56.075Z,1.65
2019-01-14T11:20:32.432Z,1.55
2019-01-14T11:23:03.634Z,1.65
2019-01-14T11:25:34.764Z,1.58
2019-01-14T11:28:06.014Z,1.60
2019-01-14T11:30:36.769Z,1.68
2019-01-14T11:33:07.456Z,1.73
2019-01-14T11:35:55.015Z,1.82
2019-01-14T11:38:48.105Z,1.93
2019-01-14T11:41:19.811Z,1.95
2019-01-14T11:43:50.704Z,2.05
2019-01-14T11:46:22.099Z,2.03
2019-01-14T11:48:53.294Z,2.14
2019-01-14T11:51:24.278Z,2.22
2019-01-14T11:53:57.190Z,2.29
2019-01-14T11:56:28.083Z,2.41
2019-01-14T11:58:58.908Z,2.52
2019-01-14T12:01:29.681Z,2.57
2019-01-14T12:04:00.744Z,2.47
2019-01-14T12:06:31.875Z,2.40
2019-01-14T12:09:02.981Z,2.48
2019-01-14T12:11:34.088Z,2.58
2019-01-14T12:14:04.882Z,2.56
2019-01-14T12:16:35.675Z,2.59
2019-01-14T12:19:06.710Z,2.51
2019-01-14T12:21:37.581Z,2.50
2019-01-14T12:24:08.630Z,2.51
2019-01-14T12:26:39.648Z,2.53
2019-01-14T12:29:11.650Z,2.50
2019-01-14T12:31:43.036Z,2.60
2019-01-14T12:34:13.953Z,2.72
2019-01-14T12:36:45.163Z,2.93
2019-01-14T12:39:40.043Z,2.81
2019-01-14T12:42:10.952Z,2.89
2019-01-14T12:44:43.913Z,2.84
2019-01-14T12:47:15.370Z,2.83
2019-01-14T12:49:47.802Z,2.94
2019-01-14T12:52:19.548Z,2.99
2019-01-14T12:54:51.721Z,2.95
2019-01-14T12:57:24.208Z,2.96
2019-01-14T13:00:24.549Z,2.92
2019-01-14T13:02:59.851Z,2.87
2019-01-14T13:05:34.212Z,2.86
2019-01-14T13:08:09.716Z,2.81
2019-01-14T13:10:45.250Z,2.96
2019-01-14T13:13:16.519Z,2.98
2019-01-14T13:18:40.486Z,2.88
2019-01-14T13:21:11.994Z,2.78
2019-01-14T13:23:44.418Z,2.77
2019-01-14T13:26:16.450Z,2.70
2019-01-14T13:28:52.669Z,2.64
2019-01-14T13:31:24.682Z,2.63
2019-01-14T13:33:56.050Z,2.50
2019-01-14T13:36:26.577Z,2.47
2019-01-14T13:38:57.437Z,2.44
2019-01-14T13:41:28.204Z,2.42
2019-01-14T13:43:58.982Z,2.46
2019-01-14T13:46:30.223Z,2.53
2019-01-14T13:49:01.385Z,2.59
2019-01-14T13:51:32.176Z,2.62
2019-01-14T13:54:06.082Z,2.60
2019-01-14T13:56:37.247Z,2.65
2019-01-14T13:59:09.583Z,2.66
2019-01-14T14:05:06.034Z,2.79
2019-01-14T14:11:11.524Z,2.81
2019-01-14T14:14:16.781Z,2.78
2019-01-14T14:18:01.668Z,2.82
2019-01-14T14:20:45.327Z,2.93
2019-01-14T14:24:13.073Z,2.86
2019-01-14T14:27:32.801Z,2.83
2019-01-14T14:30:42.132Z,2.57
2019-01-14T14:33:13.548Z,1.94
2019-01-14T14:35:44.420Z,1.61
2019-01-14T14:38:20.758Z,1.47
2019-01-14T14:40:51.540Z,1.46
2019-01-14T14:43:22.286Z,1.55
2019-01-14T14:45:53.085Z,1.69
2019-01-14T14:48:23.861Z,1.75
2019-01-14T14:50:54.630Z,1.87
2019-01-14T14:53:29.702Z,1.95
2019-01-14T14:56:00.387Z,2.01
2019-01-14T14:58:31.183Z,2.16
2019-01-14T15:01:03.097Z,2.16
2019-01-14T15:03:36.837Z,2.16
2019-01-14T15:06:11.278Z,2.17
2019-01-14T15:08:43.597Z,2.10
2019-01-14T15:11:14.345Z,2.09
2019-01-14T15:13:46.395Z,2.04
2019-01-14T15:16:17.152Z,2.01
2019-01-14T15:18:47.885Z,1.98
2019-01-14T15:21:18.826Z,1.95
2019-01-14T15:23:50.037Z,1.93
2019-01-14T15:26:21.454Z,1.92
2019-01-14T15:28:58.857Z,1.96
2019-01-14T15:31:29.939Z,1.97
2019-01-14T15:34:00.894Z,1.97
2019-01-14T15:36:31.925Z,1.93
2019-01-14T15:39:04.412Z,2.01
2019-01-14T15:41:35.652Z,1.99
2019-01-14T15:44:06.718Z,1.99
2019-01-14T15:46:37.916Z,2.05
2019-01-14T15:49:09.307Z,2.06
2019-01-14T15:51:40.245Z,2.00
2019-01-14T15:54:10.959Z,1.99
2019-01-14T15:56:42.352Z,1.97
2019-01-14T15:59:13.165Z,1.97
2019-01-14T16:01:44.058Z,2.02
2019-01-14T16:04:14.757Z,1.97
2019-01-14T16:06:45.524Z,1.96
2019-01-14T16:09:16.066Z,1.98
2019-01-14T16:11:46.564Z,1.97
2019-01-14T16:14:17.120Z,2.03
2019-01-14T16:16:47.694Z,2.06
2019-01-14T16:19:18.264Z,2.05
2019-01-14T16:21:48.852Z,1.98
2019-01-14T16:24:19.393Z,2.00
2019-01-14T16:26:50.282Z,1.99
2019-01-14T16:29:22.189Z,1.91
2019-01-14T16:31:52.870Z,1.88
2019-01-14T16:34:23.420Z,1.83
2019-01-14T16:36:53.945Z,1.82
2019-01-14T16:39:24.514Z,1.92
2019-01-14T16:41:55.061Z,1.83
2019-01-14T16:44:25.658Z,1.84
2019-01-14T16:46:56.225Z,1.86
2019-01-14T16:49:26.778Z,1.87
2019-01-14T16:51:57.370Z,1.88
2019-01-14T16:54:27.912Z,1.91
2019-01-14T16:56:58.749Z,1.96
2019-01-14T16:59:29.259Z,1.90
2019-01-14T17:01:59.891Z,1.87
2019-01-14T17:04:30.437Z,1.89
2019-01-14T17:07:01.003Z,1.93
2019-01-14T17:09:31.578Z,1.95
2019-01-14T17:12:02.190Z,1.96
2019-01-14T17:14:32.727Z,1.90
2019-01-14T17:17:03.413Z,1.87
2019-01-14T17:19:33.993Z,1.83
2019-01-14T17:22:04.540Z,1.85
2019-01-14T17:24:35.228Z,1.82
2019-01-14T17:27:05.854Z,1.80
2019-01-14T17:29:36.388Z,1.77
2019-01-14T17:32:07.015Z,1.77
2019-01-14T17:34:37.612Z,1.70
2019-01-14T17:37:08.242Z,1.73
2019-01-14T17:39:38.997Z,1.72
2019-01-14T17:42:10.236Z,1.68
2019-01-14T17:44:40.812Z,1.68
2019-01-14T17:47:11.448Z,1.69
2019-01-14T17:49:42.026Z,1.69
2019-01-14T17:52:13.183Z,1.72
2019-01-14T17:54:44.410Z,1.67
2019-01-14T17:57:15.315Z,1.67
2019-01-14T17:59:47.322Z,1.66
2019-01-14T18:02:18.295Z,1.66
2019-01-14T18:04:49.980Z,1.64
2019-01-14T18:07:21.183Z,1.66
2019-01-14T18:09:51.785Z,1.63
2019-01-14T18:12:22.320Z,1.63
2019-01-14T18:14:52.969Z,1.59
2019-01-14T18:17:23.552Z,1.65
2019-01-14T18:20:06.105Z,1.62
2019-01-14T18:22:36.869Z,1.69
2019-01-14T18:25:09.015Z,1.75
2019-01-14T18:27:39.811Z,1.76
2019-01-14T18:30:17.185Z,1.73
2019-01-14T18:32:47.998Z,1.81
2019-01-14T18:35:18.678Z,1.73
2019-01-14T18:37:49.230Z,1.79
2019-01-14T18:40:20.255Z,1.83
2019-01-14T18:42:50.943Z,1.82
2019-01-14T18:45:22.309Z,1.88
2019-01-14T18:47:53.147Z,1.89
2019-01-14T18:50:24.793Z,1.97
2019-01-14T18:52:55.351Z,2.01
2019-01-14T18:55:26.072Z,1.96
2019-01-14T18:57:57.085Z,2.02
2019-01-14T19:00:27.887Z,2.05
2019-01-14T19:02:59.220Z,2.05
2019-01-14T19:05:30.198Z,2.08
2019-01-14T19:08:00.985Z,2.05
2019-01-14T19:10:31.671Z,2.07
2019-01-14T19:13:02.509Z,2.11
2019-01-14T19:15:33.226Z,2.17
2019-01-14T19:18:04.700Z,2.18
2019-01-14T19:20:35.301Z,2.28
2019-01-14T19:23:06.122Z,2.32
2019-01-14T19:25:36.680Z,2.31
2019-01-14T19:28:07.419Z,2.34
2019-01-14T19:30:38.183Z,2.31
2019-01-14T19:33:08.975Z,2.34
2019-01-14T19:35:39.520Z,2.33
2019-01-14T19:38:10.301Z,2.31
2019-01-14T19:40:40.893Z,2.32
2019-01-14T19:43:12.936Z,2.35
2019-01-14T19:45:49.714Z,2.39
2019-01-14T19:48:16.676Z,2.40
2019-01-14T19:50:47.361Z,2.43
2019-01-14T19:53:17.949Z,2.46
2019-01-14T19:55:48.684Z,2.54
2019-01-14T19:58:19.302Z,2.50
2019-01-14T20:00:49.899Z,2.47
2019-01-14T20:03:20.725Z,2.48
2019-01-14T20:05:51.344Z,2.53
2019-01-14T20:08:36.405Z,2.52
2019-01-14T20:11:09.286Z,2.50
2019-01-14T20:13:39.707Z,2.48
2019-01-14T20:16:13.429Z,2.43
2019-01-14T20:18:44.136Z,2.38
2019-01-14T20:21:14.791Z,2.33
2019-01-14T20:23:52.177Z,2.29
2019-01-14T20:26:18.894Z,2.24
2019-01-14T20:28:49.550Z,2.23
2019-01-14T20:31:20.196Z,2.20
2019-01-14T20:33:50.896Z,2.27
2019-01-14T20:36:21.644Z,2.27
2019-01-14T20:41:29.441Z,2.34
2019-01-14T20:44:05.193Z,2.29
2019-01-14T20:46:34.278Z,2.34
2019-01-14T20:49:11.019Z,2.40
2019-01-14T20:51:43.520Z,2.31
2019-01-14T20:54:14.979Z,2.35
2019-01-14T20:56:46.455Z,2.45
2019-01-14T20:59:18.050Z,2.48
2019-01-14T21:01:49.564Z,2.46
2019-01-14T21:05:47.590Z,2.53
2019-01-14T21:08:21.629Z,2.62
2019-01-14T21:10:56.197Z,2.72
2019-01-14T21:13:27.052Z,2.76
2019-01-14T21:16:02.777Z,2.76
2019-01-14T21:18:30.378Z,2.70
2019-01-14T21:21:01.146Z,2.78
2019-01-14T21:23:31.810Z,2.76
2019-01-14T21:26:02.473Z,2.82
2019-01-14T21:31:02.160Z,2.93
2019-01-14T21:33:32.698Z,2.99
2019-01-14T21:36:03.178Z,2.91
2019-01-14T21:38:33.774Z,2.87
2019-01-14T21:41:04.315Z,2.87
2019-01-14T21:43:34.854Z,2.96
2019-01-14T21:46:05.376Z,2.94
2019-01-14T21:48:35.908Z,3.03
2019-01-14T21:51:06.401Z,3.02
2019-01-14T21:53:36.871Z,3.00
2019-01-14T21:56:07.728Z,2.97
2019-01-14T21:58:38.284Z,2.93
2019-01-14T22:01:08.806Z,2.94
2019-01-14T22:03:39.372Z,3.00
2019-01-14T22:06:09.910Z,3.13
2019-01-14T22:08:40.453Z,3.06
2019-01-14T22:11:11.018Z,3.12
2019-01-14T22:13:41.433Z,3.17
2019-01-14T22:16:11.940Z,3.21
2019-01-14T22:18:42.512Z,3.26
2019-01-14T22:21:13.007Z,3.28
2019-01-14T22:23:43.543Z,3.32
2019-01-14T22:26:14.106Z,3.29
2019-01-14T22:28:44.609Z,3.38
2019-01-14T22:31:15.128Z,3.36
2019-01-14T22:33:45.657Z,3.38
2019-01-14T22:36:16.131Z,3.37
2019-01-14T22:38:46.826Z,3.43
2019-01-14T22:41:17.334Z,3.43
2019-01-14T22:43:48.621Z,3.52
2019-01-14T22:46:19.161Z,3.42
2019-01-14T22:48:49.805Z,3.44
2019-01-14T22:51:20.329Z,3.44
2019-01-14T22:53:50.882Z,3.44
2019-01-14T22:56:21.474Z,3.48
2019-01-14T22:58:52.025Z,3.51
2019-01-14T23:01:44.560Z,3.55
2019-01-14T23:04:15.052Z,3.52
2019-01-14T23:06:45.653Z,3.58
2019-01-14T23:09:16.217Z,3.58
2019-01-14T23:11:52.843Z,3.75
2019-01-14T23:14:18.965Z,3.71
2019-01-14T23:16:49.467Z,3.71
2019-01-14T23:19:20.035Z,3.73
2019-01-14T23:21:50.559Z,3.77
2019-01-14T23:24:21.083Z,3.81
2019-01-14T23:26:51.790Z,3.85
2019-01-14T23:29:22.306Z,3.81
2019-01-14T23:31:53.139Z,3.91
2019-01-14T23:34:23.751Z,3.91
2019-01-14T23:36:54.429Z,3.90
2019-01-14T23:39:25.127Z,3.91
2019-01-14T23:42:00.411Z,3.99
2019-01-14T23:44:28.022Z,3.97
2019-01-14T23:46:58.636Z,3.91
2019-01-14T23:49:29.233Z,3.96
2019-01-14T23:51:59.760Z,3.95
2019-01-14T23:54:36.783Z,3.94
2019-01-14T23:57:02.893Z,3.97
2019-01-14T23:59:33.494Z,4.02
